sensor_id;sensor_type;location;lat;lon;timestamp;pressure;altitude;pressure_sealevel;temperature;humidity
23733;BME280;12047;53.450;-2.286;2023-03-20T00:02:20;101210.78;;;13.61;100.00
23733;BME280;12047;53.450;-2.286;2023-03-20T00:07:24;101197.53;;;13.51;100.00
23733;BME280;12047;53.450;-2.286;2023-03-20T00:12:27;101196.66;;;13.88;100.00
23733;BME280;12047;53.450;-2.286;2023-03-20T00:17:30;101184.97;;;13.34;100.00
23733;BME280;12047;53.450;-2.286;2023-03-20T00:22:31;101190.31;;;13.34;100.00
23733;BME280;12047;53.450;-2.286;2023-03-20T00:27:33;101176.41;;;13.77;100.00
23733;BME280;12047;53.450;-2.286;2023-03-20T01:02:26;101126.81;;;13.67;100.00
23733;BME280;12047;53.450;-2.286;2023-03-20T01:07:29;101119.00;;;14.10;100.00
23733;BME280;12047;53.450;-2.286;2023-03-20T01:19:13;101115.94;;;13.23;100.00
23733;BME280;12047;53.450;-2.286;2023-03-20T01:36:19;101103.91;;;14.01;100.00
23733;BME280;12047;53.450;-2.286;2023-03-20T01:41:23;101101.25;;;13.56;100.00
23733;BME280;12047;53.450;-2.286;2023-03-20T01:52:29;101095.84;;;13.38;100.00
23733;BME280;12047;53.450;-2.286;2023-03-20T01:58:15;101086.53;;;13.15;100.00
23733;BME280;12047;53.450;-2.286;2023-03-20T02:15:28;101075.59;;;13.82;100.00
23733;BME280;12047;53.450;-2.286;2023-03-20T02:37:39;101045.25;;;13.66;100.00
23733;BME280;12047;53.450;-2.286;2023-03-20T02:53:53;101031.75;;;13.77;100.00
23733;BME280;12047;53.450;-2.286;2023-03-20T02:59:15;101031.22;;;14.09;100.00
23733;BME280;12047;53.450;-2.286;2023-03-20T03:04:25;101029.28;;;13.66;100.00
23733;BME280;12047;53.450;-2.286;2023-03-20T03:09:44;101025.56;;;13.58;100.00
23733;BME280;12047;53.450;-2.286;2023-03-20T03:14:53;101018.50;;;14.20;100.00
23733;BME280;12047;53.450;-2.286;2023-03-20T03:20:06;101014.22;;;13.56;100.00
23733;BME280;12047;53.450;-2.286;2023-03-20T03:25:09;101016.91;;;13.92;100.00
23733;BME280;12047;53.450;-2.286;2023-03-20T03:30:37;101016.50;;;14.22;100.00
23733;BME280;12047;53.450;-2.286;2023-03-20T03:35:41;101021.06;;;14.48;100.00
23733;BME280;12047;53.450;-2.286;2023-03-20T03:41:04;100999.88;;;14.03;100.00
23733;BME280;12047;53.450;-2.286;2023-03-20T03:46:13;101002.88;;;14.25;100.00
23733;BME280;12047;53.450;-2.286;2023-03-20T03:51:20;100996.94;;;14.32;100.00
23733;BME280;12047;53.450;-2.286;2023-03-20T03:56:41;100986.38;;;13.69;100.00
23733;BME280;12047;53.450;-2.286;2023-03-20T04:01:44;100988.34;;;14.20;100.00
23733;BME280;12047;53.450;-2.286;2023-03-20T04:06:47;100983.06;;;14.28;100.00
23733;BME280;12047;53.450;-2.286;2023-03-20T04:11:50;100985.13;;;14.34;100.00
23733;BME280;12047;53.450;-2.286;2023-03-20T04:16:53;100978.81;;;14.17;100.00
23733;BME280;12047;53.450;-2.286;2023-03-20T04:22:04;100977.81;;;14.18;100.00
23733;BME280;12047;53.450;-2.286;2023-03-20T04:27:07;100983.75;;;14.48;100.00
23733;BME280;12047;53.450;-2.286;2023-03-20T04:32:10;100983.38;;;14.43;100.00
23733;BME280;12047;53.450;-2.286;2023-03-20T04:37:10;100985.09;;;14.52;100.00
23733;BME280;12047;53.450;-2.286;2023-03-20T04:42:11;100977.59;;;14.12;100.00
23733;BME280;12047;53.450;-2.286;2023-03-20T04:47:12;100986.03;;;14.43;100.00
23733;BME280;12047;53.450;-2.286;2023-03-20T04:52:14;100973.78;;;14.32;100.00
23733;BME280;12047;53.450;-2.286;2023-03-20T04:57:15;100976.59;;;14.48;100.00
23733;BME280;12047;53.450;-2.286;2023-03-20T05:02:25;100967.53;;;14.67;100.00
23733;BME280;12047;53.450;-2.286;2023-03-20T05:07:26;100961.41;;;13.87;100.00
23733;BME280;12047;53.450;-2.286;2023-03-20T05:12:32;100960.00;;;14.62;100.00
23733;BME280;12047;53.450;-2.286;2023-03-20T05:17:52;100965.94;;;14.82;100.00
23733;BME280;12047;53.450;-2.286;2023-03-20T05:22:54;100963.25;;;14.48;100.00
23733;BME280;12047;53.450;-2.286;2023-03-20T05:27:57;100966.06;;;15.07;100.00
23733;BME280;12047;53.450;-2.286;2023-03-20T05:32:59;100955.28;;;14.82;100.00
23733;BME280;12047;53.450;-2.286;2023-03-20T05:38:00;100962.16;;;14.59;100.00
23733;BME280;12047;53.450;-2.286;2023-03-20T05:43:03;100951.19;;;15.54;100.00
23733;BME280;12047;53.450;-2.286;2023-03-20T05:48:05;100958.59;;;15.18;100.00
23733;BME280;12047;53.450;-2.286;2023-03-20T05:53:05;100948.78;;;15.27;100.00
23733;BME280;12047;53.450;-2.286;2023-03-20T05:58:08;100962.25;;;15.68;100.00
23733;BME280;12047;53.450;-2.286;2023-03-20T06:03:09;100956.72;;;15.69;100.00
23733;BME280;12047;53.450;-2.286;2023-03-20T06:08:11;100960.22;;;15.61;100.00
23733;BME280;12047;53.450;-2.286;2023-03-20T06:13:11;100964.75;;;15.69;100.00
23733;BME280;12047;53.450;-2.286;2023-03-20T06:18:15;100958.50;;;15.52;100.00
23733;BME280;12047;53.450;-2.286;2023-03-20T06:23:21;100960.94;;;16.04;100.00
23733;BME280;12047;53.450;-2.286;2023-03-20T06:28:24;100959.41;;;15.85;100.00
23733;BME280;12047;53.450;-2.286;2023-03-20T06:33:24;100971.09;;;15.92;100.00
23733;BME280;12047;53.450;-2.286;2023-03-20T06:38:25;100973.84;;;15.42;100.00
23733;BME280;12047;53.450;-2.286;2023-03-20T06:43:25;100986.63;;;15.89;100.00
23733;BME280;12047;53.450;-2.286;2023-03-20T06:48:26;100990.66;;;15.26;100.00
23733;BME280;12047;53.450;-2.286;2023-03-20T06:53:29;100981.97;;;15.83;100.00
23733;BME280;12047;53.450;-2.286;2023-03-20T06:58:29;100996.06;;;15.01;100.00
23733;BME280;12047;53.450;-2.286;2023-03-20T07:03:30;100996.44;;;15.56;100.00
23733;BME280;12047;53.450;-2.286;2023-03-20T07:08:40;101001.50;;;15.91;100.00
23733;BME280;12047;53.450;-2.286;2023-03-20T07:13:40;101002.53;;;16.07;100.00
23733;BME280;12047;53.450;-2.286;2023-03-20T07:18:41;101008.19;;;16.12;100.00
23733;BME280;12047;53.450;-2.286;2023-03-20T07:23:41;101001.34;;;16.17;100.00
23733;BME280;12047;53.450;-2.286;2023-03-20T07:28:42;100997.00;;;15.92;100.00
23733;BME280;12047;53.450;-2.286;2023-03-20T07:33:42;100999.69;;;16.16;100.00
23733;BME280;12047;53.450;-2.286;2023-03-20T07:38:43;101001.69;;;16.30;100.00
23733;BME280;12047;53.450;-2.286;2023-03-20T07:43:43;101001.53;;;16.24;100.00
23733;BME280;12047;53.450;-2.286;2023-03-20T07:48:44;100992.91;;;16.93;100.00
23733;BME280;12047;53.450;-2.286;2023-03-20T07:53:44;100997.00;;;16.57;100.00
23733;BME280;12047;53.450;-2.286;2023-03-20T07:58:45;101005.69;;;16.51;100.00
23733;BME280;12047;53.450;-2.286;2023-03-20T08:03:45;101012.63;;;16.92;100.00
23733;BME280;12047;53.450;-2.286;2023-03-20T08:08:46;101012.63;;;16.92;100.00
23733;BME280;12047;53.450;-2.286;2023-03-20T08:13:49;101020.81;;;17.07;100.00
23733;BME280;12047;53.450;-2.286;2023-03-20T08:18:50;101017.94;;;17.09;100.00
23733;BME280;12047;53.450;-2.286;2023-03-20T08:23:52;101022.72;;;16.66;100.00
23733;BME280;12047;53.450;-2.286;2023-03-20T08:28:53;101024.06;;;16.54;100.00
23733;BME280;12047;53.450;-2.286;2023-03-20T08:33:54;101024.50;;;17.06;100.00
23733;BME280;12047;53.450;-2.286;2023-03-20T08:38:56;101019.94;;;17.15;100.00
23733;BME280;12047;53.450;-2.286;2023-03-20T08:43:56;101026.25;;;17.30;100.00
23733;BME280;12047;53.450;-2.286;2023-03-20T08:48:57;101020.50;;;17.33;100.00
23733;BME280;12047;53.450;-2.286;2023-03-20T08:54:00;101015.66;;;17.76;100.00
23733;BME280;12047;53.450;-2.286;2023-03-20T08:59:00;101017.84;;;17.72;100.00
23733;BME280;12047;53.450;-2.286;2023-03-20T09:04:01;101027.75;;;17.94;100.00
23733;BME280;12047;53.450;-2.286;2023-03-20T09:09:02;101025.72;;;17.96;100.00
23733;BME280;12047;53.450;-2.286;2023-03-20T09:14:03;101032.06;;;17.73;100.00
23733;BME280;12047;53.450;-2.286;2023-03-20T09:19:04;101032.75;;;17.97;100.00
23733;BME280;12047;53.450;-2.286;2023-03-20T09:24:05;101024.66;;;18.28;100.00
23733;BME280;12047;53.450;-2.286;2023-03-20T09:29:06;101029.84;;;18.30;100.00
23733;BME280;12047;53.450;-2.286;2023-03-20T09:34:07;101033.66;;;18.50;100.00
23733;BME280;12047;53.450;-2.286;2023-03-20T09:39:07;101033.22;;;18.01;100.00
23733;BME280;12047;53.450;-2.286;2023-03-20T09:44:34;101043.69;;;18.33;100.00
23733;BME280;12047;53.450;-2.286;2023-03-20T09:55:17;101047.69;;;18.38;100.00
23733;BME280;12047;53.450;-2.286;2023-03-20T10:00:23;101044.19;;;18.75;100.00
23733;BME280;12047;53.450;-2.286;2023-03-20T10:05:39;101046.97;;;18.81;100.00
23733;BME280;12047;53.450;-2.286;2023-03-20T10:21:45;101051.59;;;18.87;100.00
23733;BME280;12047;53.450;-2.286;2023-03-20T10:26:51;101056.72;;;19.12;100.00
23733;BME280;12047;53.450;-2.286;2023-03-20T10:32:07;101059.84;;;18.86;100.00
23733;BME280;12047;53.450;-2.286;2023-03-20T10:42:56;101052.91;;;18.91;100.00
23733;BME280;12047;53.450;-2.286;2023-03-20T10:48:00;101053.66;;;19.00;100.00
23733;BME280;12047;53.450;-2.286;2023-03-20T10:53:03;101049.94;;;19.30;100.00
23733;BME280;12047;53.450;-2.286;2023-03-20T10:58:21;101053.28;;;19.47;100.00
23733;BME280;12047;53.450;-2.286;2023-03-20T11:03:28;101039.91;;;19.68;100.00
23733;BME280;12047;53.450;-2.286;2023-03-20T11:08:34;101051.53;;;19.54;100.00
23733;BME280;12047;53.450;-2.286;2023-03-20T11:13:41;101036.97;;;19.85;100.00
23733;BME280;12047;53.450;-2.286;2023-03-20T11:18:42;101028.53;;;20.09;100.00
23733;BME280;12047;53.450;-2.286;2023-03-20T11:23:43;101024.50;;;20.20;100.00
23733;BME280;12047;53.450;-2.286;2023-03-20T11:28:52;101025.66;;;20.53;100.00
23733;BME280;12047;53.450;-2.286;2023-03-20T11:39:21;101029.88;;;20.20;100.00
23733;BME280;12047;53.450;-2.286;2023-03-20T11:44:24;101024.00;;;20.87;100.00
23733;BME280;12047;53.450;-2.286;2023-03-20T11:49:26;101019.47;;;20.87;100.00
23733;BME280;12047;53.450;-2.286;2023-03-20T11:54:27;101025.13;;;20.99;100.00
23733;BME280;12047;53.450;-2.286;2023-03-20T11:59:36;101017.44;;;20.96;100.00
23733;BME280;12047;53.450;-2.286;2023-03-20T12:04:39;101010.06;;;21.59;100.00
23733;BME280;12047;53.450;-2.286;2023-03-20T12:10:06;100995.59;;;21.80;100.00
23733;BME280;12047;53.450;-2.286;2023-03-20T12:15:14;100990.41;;;21.71;100.00
23733;BME280;12047;53.450;-2.286;2023-03-20T12:26:10;100995.03;;;21.30;100.00
23733;BME280;12047;53.450;-2.286;2023-03-20T12:36:46;100986.22;;;21.49;100.00
23733;BME280;12047;53.450;-2.286;2023-03-20T12:47:08;100983.38;;;21.77;100.00
23733;BME280;12047;53.450;-2.286;2023-03-20T12:52:40;100974.72;;;22.21;100.00
23733;BME280;12047;53.450;-2.286;2023-03-20T13:03:12;100968.72;;;22.26;100.00
23733;BME280;12047;53.450;-2.286;2023-03-20T13:13:51;100958.31;;;22.29;100.00
23733;BME280;12047;53.450;-2.286;2023-03-20T13:24:35;100965.16;;;22.05;100.00
23733;BME280;12047;53.450;-2.286;2023-03-20T13:40:17;100954.13;;;21.94;100.00
23733;BME280;12047;53.450;-2.286;2023-03-20T13:45:27;100954.69;;;22.95;100.00
23733;BME280;12047;53.450;-2.286;2023-03-20T13:50:39;100943.59;;;22.25;100.00
23733;BME280;12047;53.450;-2.286;2023-03-20T14:01:22;100933.31;;;21.48;100.00
23733;BME280;12047;53.450;-2.286;2023-03-20T14:11:37;100926.75;;;22.36;100.00
23733;BME280;12047;53.450;-2.286;2023-03-20T14:16:38;100926.50;;;21.79;100.00
23733;BME280;12047;53.450;-2.286;2023-03-20T14:21:39;100930.06;;;22.52;100.00
23733;BME280;12047;53.450;-2.286;2023-03-20T14:26:48;100936.47;;;22.64;100.00
23733;BME280;12047;53.450;-2.286;2023-03-20T14:31:49;100931.47;;;21.62;100.00
23733;BME280;12047;53.450;-2.286;2023-03-20T14:37:02;100922.78;;;21.80;100.00
23733;BME280;12047;53.450;-2.286;2023-03-20T14:58:01;100891.88;;;21.89;100.00
23733;BME280;12047;53.450;-2.286;2023-03-20T15:03:08;100902.66;;;22.35;100.00
23733;BME280;12047;53.450;-2.286;2023-03-20T15:08:20;100890.66;;;22.24;100.00
23733;BME280;12047;53.450;-2.286;2023-03-20T15:13:22;100883.38;;;21.98;100.00
23733;BME280;12047;53.450;-2.286;2023-03-20T15:18:25;100882.75;;;21.70;100.00
23733;BME280;12047;53.450;-2.286;2023-03-20T15:23:26;100873.59;;;21.64;100.00
23733;BME280;12047;53.450;-2.286;2023-03-20T15:28:27;100877.91;;;21.26;100.00
23733;BME280;12047;53.450;-2.286;2023-03-20T15:33:50;100880.69;;;21.04;100.00
23733;BME280;12047;53.450;-2.286;2023-03-20T15:38:50;100882.16;;;22.01;100.00
23733;BME280;12047;53.450;-2.286;2023-03-20T15:43:51;100873.78;;;21.43;100.00
23733;BME280;12047;53.450;-2.286;2023-03-20T15:48:52;100879.84;;;22.18;100.00
23733;BME280;12047;53.450;-2.286;2023-03-20T15:53:55;100876.53;;;22.09;100.00
23733;BME280;12047;53.450;-2.286;2023-03-20T15:58:56;100862.63;;;21.66;100.00
23733;BME280;12047;53.450;-2.286;2023-03-20T16:03:58;100862.81;;;21.45;100.00
23733;BME280;12047;53.450;-2.286;2023-03-20T16:09:01;100856.41;;;21.52;100.00
23733;BME280;12047;53.450;-2.286;2023-03-20T16:14:06;100848.72;;;21.76;100.00
23733;BME280;12047;53.450;-2.286;2023-03-20T16:19:11;100845.81;;;21.70;100.00
23733;BME280;12047;53.450;-2.286;2023-03-20T16:24:29;100838.75;;;21.89;100.00
23733;BME280;12047;53.450;-2.286;2023-03-20T16:29:34;100842.09;;;21.71;100.00
23733;BME280;12047;53.450;-2.286;2023-03-20T16:34:37;100840.41;;;21.97;100.00
23733;BME280;12047;53.450;-2.286;2023-03-20T16:39:38;100828.56;;;21.78;100.00
23733;BME280;12047;53.450;-2.286;2023-03-20T16:44:40;100825.47;;;21.61;100.00
23733;BME280;12047;53.450;-2.286;2023-03-20T16:49:50;100827.97;;;21.56;100.00
23733;BME280;12047;53.450;-2.286;2023-03-20T16:54:55;100818.97;;;21.10;100.00
23733;BME280;12047;53.450;-2.286;2023-03-20T17:00:04;100819.66;;;21.25;100.00
23733;BME280;12047;53.450;-2.286;2023-03-20T17:05:13;100825.19;;;20.49;100.00
23733;BME280;12047;53.450;-2.286;2023-03-20T17:15:22;100817.47;;;20.87;100.00
23733;BME280;12047;53.450;-2.286;2023-03-20T17:20:27;100825.28;;;21.63;100.00
23733;BME280;12047;53.450;-2.286;2023-03-20T17:25:31;100820.41;;;20.17;100.00
23733;BME280;12047;53.450;-2.286;2023-03-20T17:30:31;100832.03;;;20.17;100.00
23733;BME280;12047;53.450;-2.286;2023-03-20T17:35:32;100830.28;;;20.37;100.00
23733;BME280;12047;53.450;-2.286;2023-03-20T17:40:33;100831.63;;;20.20;100.00
23733;BME280;12047;53.450;-2.286;2023-03-20T17:45:33;100837.63;;;20.22;100.00
23733;BME280;12047;53.450;-2.286;2023-03-20T17:50:34;100831.53;;;20.07;100.00
23733;BME280;12047;53.450;-2.286;2023-03-20T17:55:34;100828.19;;;20.74;100.00
23733;BME280;12047;53.450;-2.286;2023-03-20T18:00:35;100829.78;;;19.93;100.00
23733;BME280;12047;53.450;-2.286;2023-03-20T18:05:35;100821.47;;;20.50;100.00
23733;BME280;12047;53.450;-2.286;2023-03-20T18:10:38;100814.06;;;20.65;100.00
23733;BME280;12047;53.450;-2.286;2023-03-20T18:15:39;100814.00;;;21.13;100.00
23733;BME280;12047;53.450;-2.286;2023-03-20T18:20:41;100813.88;;;20.26;100.00
23733;BME280;12047;53.450;-2.286;2023-03-20T18:25:41;100817.78;;;20.30;100.00
23733;BME280;12047;53.450;-2.286;2023-03-20T18:30:42;100808.56;;;19.77;100.00
23733;BME280;12047;53.450;-2.286;2023-03-20T18:35:43;100806.25;;;19.24;100.00
23733;BME280;12047;53.450;-2.286;2023-03-20T18:40:43;100808.31;;;19.72;100.00
23733;BME280;12047;53.450;-2.286;2023-03-20T18:45:46;100806.28;;;19.74;100.00
23733;BME280;12047;53.450;-2.286;2023-03-20T18:50:47;100800.25;;;19.99;100.00
23733;BME280;12047;53.450;-2.286;2023-03-20T18:55:49;100797.47;;;19.86;100.00
23733;BME280;12047;53.450;-2.286;2023-03-20T19:00:52;100798.06;;;19.54;100.00
23733;BME280;12047;53.450;-2.286;2023-03-20T19:05:55;100800.72;;;19.75;100.00
23733;BME280;12047;53.450;-2.286;2023-03-20T19:10:56;100776.47;;;19.68;100.00
23733;BME280;12047;53.450;-2.286;2023-03-20T19:16:04;100793.38;;;18.98;100.00
23733;BME280;12047;53.450;-2.286;2023-03-20T19:21:06;100788.75;;;18.92;100.00
23733;BME280;12047;53.450;-2.286;2023-03-20T19:26:15;100780.69;;;19.35;100.00
23733;BME280;12047;53.450;-2.286;2023-03-20T19:31:16;100790.41;;;19.57;100.00
23733;BME280;12047;53.450;-2.286;2023-03-20T19:36:27;100784.41;;;19.13;100.00
23733;BME280;12047;53.450;-2.286;2023-03-20T19:41:28;100776.41;;;19.41;100.00
23733;BME280;12047;53.450;-2.286;2023-03-20T19:46:30;100769.13;;;19.34;100.00
23733;BME280;12047;53.450;-2.286;2023-03-20T19:51:31;100773.16;;;19.45;100.00
23733;BME280;12047;53.450;-2.286;2023-03-20T19:56:31;100762.97;;;19.41;100.00
23733;BME280;12047;53.450;-2.286;2023-03-20T20:01:33;100751.00;;;18.43;100.00
23733;BME280;12047;53.450;-2.286;2023-03-20T20:06:34;100748.94;;;18.96;100.00
23733;BME280;12047;53.450;-2.286;2023-03-20T20:11:37;100740.88;;;18.96;100.00
23733;BME280;12047;53.450;-2.286;2023-03-20T20:16:38;100730.31;;;18.58;100.00
23733;BME280;12047;53.450;-2.286;2023-03-20T20:21:44;100730.44;;;18.65;100.00
23733;BME280;12047;53.450;-2.286;2023-03-20T20:26:53;100733.78;;;18.67;100.00
23733;BME280;12047;53.450;-2.286;2023-03-20T20:31:54;100734.63;;;18.53;100.00
23733;BME280;12047;53.450;-2.286;2023-03-20T20:36:55;100734.97;;;18.64;100.00
23733;BME280;12047;53.450;-2.286;2023-03-20T20:41:56;100726.97;;;18.35;100.00
23733;BME280;12047;53.450;-2.286;2023-03-20T20:46:57;100734.78;;;18.87;100.00
23733;BME280;12047;53.450;-2.286;2023-03-20T20:51:57;100731.56;;;18.56;100.00
23733;BME280;12047;53.450;-2.286;2023-03-20T20:56:58;100721.53;;;18.28;100.00
23733;BME280;12047;53.450;-2.286;2023-03-20T21:01:59;100720.34;;;18.31;100.00
23733;BME280;12047;53.450;-2.286;2023-03-20T21:07:02;100714.94;;;18.46;100.00
23733;BME280;12047;53.450;-2.286;2023-03-20T21:12:04;100713.06;;;18.61;100.00
23733;BME280;12047;53.450;-2.286;2023-03-20T21:17:06;100706.38;;;18.57;100.00
23733;BME280;12047;53.450;-2.286;2023-03-20T21:22:09;100699.41;;;18.77;100.00
23733;BME280;12047;53.450;-2.286;2023-03-20T21:27:12;100691.91;;;18.36;100.00
23733;BME280;12047;53.450;-2.286;2023-03-20T21:32:14;100682.09;;;19.08;100.00
23733;BME280;12047;53.450;-2.286;2023-03-20T21:37:18;100679.13;;;18.96;100.00
23733;BME280;12047;53.450;-2.286;2023-03-20T21:42:20;100666.09;;;19.21;100.00
23733;BME280;12047;53.450;-2.286;2023-03-20T21:47:20;100657.59;;;19.17;100.00
23733;BME280;12047;53.450;-2.286;2023-03-20T21:52:21;100660.50;;;18.52;100.00
23733;BME280;12047;53.450;-2.286;2023-03-20T21:57:22;100655.53;;;18.91;100.00
23733;BME280;12047;53.450;-2.286;2023-03-20T22:02:24;100656.63;;;18.18;100.00
23733;BME280;12047;53.450;-2.286;2023-03-20T22:07:25;100647.69;;;18.68;100.00
23733;BME280;12047;53.450;-2.286;2023-03-20T22:12:25;100639.03;;;18.52;100.00
23733;BME280;12047;53.450;-2.286;2023-03-20T22:17:27;100640.16;;;18.21;100.00
23733;BME280;12047;53.450;-2.286;2023-03-20T22:22:27;100626.06;;;17.98;100.00
23733;BME280;12047;53.450;-2.286;2023-03-20T22:27:28;100633.94;;;17.85;100.00
23733;BME280;12047;53.450;-2.286;2023-03-20T22:32:29;100626.22;;;18.11;100.00
23733;BME280;12047;53.450;-2.286;2023-03-20T22:37:29;100613.41;;;17.92;100.00
23733;BME280;12047;53.450;-2.286;2023-03-20T22:42:30;100604.91;;;18.03;100.00
23733;BME280;12047;53.450;-2.286;2023-03-20T22:47:31;100602.72;;;17.48;100.00
23733;BME280;12047;53.450;-2.286;2023-03-20T22:52:32;100610.47;;;17.87;100.00
23733;BME280;12047;53.450;-2.286;2023-03-20T22:57:32;100609.91;;;17.62;100.00
23733;BME280;12047;53.450;-2.286;2023-03-20T23:02:33;100609.56;;;17.80;100.00
23733;BME280;12047;53.450;-2.286;2023-03-20T23:07:35;100609.38;;;17.81;100.00
23733;BME280;12047;53.450;-2.286;2023-03-20T23:12:36;100603.63;;;17.84;100.00
23733;BME280;12047;53.450;-2.286;2023-03-20T23:17:37;100600.97;;;17.25;100.00
23733;BME280;12047;53.450;-2.286;2023-03-20T23:22:39;100597.00;;;17.51;100.00
23733;BME280;12047;53.450;-2.286;2023-03-20T23:27:40;100578.34;;;17.72;100.00
23733;BME280;12047;53.450;-2.286;2023-03-20T23:32:41;100577.78;;;17.77;100.00
23733;BME280;12047;53.450;-2.286;2023-03-20T23:37:41;100567.53;;;17.51;100.00
23733;BME280;12047;53.450;-2.286;2023-03-20T23:42:42;100566.69;;;17.80;100.00
23733;BME280;12047;53.450;-2.286;2023-03-20T23:47:42;100570.47;;;17.12;100.00
23733;BME280;12047;53.450;-2.286;2023-03-20T23:52:43;100564.03;;;17.65;100.00
23733;BME280;12047;53.450;-2.286;2023-03-20T23:57:43;100560.59;;;17.71;100.00
